sensor_id;sensor_type;location;lat;lon;timestamp;temperature;humidity
13796;SHT30;40911;51.552;9.874;2024-02-04T05:21:14;9.11;99.22
13796;SHT30;40911;51.552;9.874;2024-02-04T05:23:36;9.07;99.40
13796;SHT30;40911;51.552;9.874;2024-02-04T05:26:02;9.09;99.39
13796;SHT30;40911;51.552;9.874;2024-02-04T05:28:24;9.09;99.28
13796;SHT30;40911;51.552;9.874;2024-02-04T05:30:45;9.07;99.12
13796;SHT30;40911;51.552;9.874;2024-02-04T05:33:07;9.04;98.99
13796;SHT30;40911;51.552;9.874;2024-02-04T05:35:28;9.06;98.89
13796;SHT30;40911;51.552;9.874;2024-02-04T05:37:51;9.04;98.64
13796;SHT30;40911;51.552;9.874;2024-02-04T05:40:13;9.02;98.56
13796;SHT30;40911;51.552;9.874;2024-02-04T05:42:37;9.00;98.71
13796;SHT30;40911;51.552;9.874;2024-02-04T05:44:58;8.95;98.70
13796;SHT30;40911;51.552;9.874;2024-02-04T05:47:20;8.90;98.74
13796;SHT30;40911;51.552;9.874;2024-02-04T05:49:42;8.89;98.68
13796;SHT30;40911;51.552;9.874;2024-02-04T05:52:04;8.86;98.82
13796;SHT30;40911;51.552;9.874;2024-02-04T05:54:27;8.83;98.97
13796;SHT30;40911;51.552;9.874;2024-02-04T05:56:48;8.83;98.82
13796;SHT30;40911;51.552;9.874;2024-02-04T05:59:10;8.83;98.90
13796;SHT30;40911;51.552;9.874;2024-02-04T06:01:32;8.80;98.79
13796;SHT30;40911;51.552;9.874;2024-02-04T06:03:54;8.80;98.79
13796;SHT30;40911;51.552;9.874;2024-02-04T06:06:16;8.77;98.83
13796;SHT30;40911;51.552;9.874;2024-02-04T06:08:39;8.75;98.96
13796;SHT30;40911;51.552;9.874;2024-02-04T06:11:03;8.77;98.98
13796;SHT30;40911;51.552;9.874;2024-02-04T06:13:24;8.77;98.93
13796;SHT30;40911;51.552;9.874;2024-02-04T06:15:46;8.80;98.89
13796;SHT30;40911;51.552;9.874;2024-02-04T06:18:07;8.80;98.83
13796;SHT30;40911;51.552;9.874;2024-02-04T06:20:29;8.82;98.72
13796;SHT30;40911;51.552;9.874;2024-02-04T06:22:51;8.83;98.56
13796;SHT30;40911;51.552;9.874;2024-02-04T06:25:12;8.80;98.63
13796;SHT30;40911;51.552;9.874;2024-02-04T06:27:35;8.83;98.44
13796;SHT30;40911;51.552;9.874;2024-02-04T06:29:57;8.86;98.30
13796;SHT30;40911;51.552;9.874;2024-02-04T06:32:19;8.83;98.35
13796;SHT30;40911;51.552;9.874;2024-02-04T06:34:40;8.86;98.26
13796;SHT30;40911;51.552;9.874;2024-02-04T06:37:03;8.85;98.22
13796;SHT30;40911;51.552;9.874;2024-02-04T06:39:24;8.82;98.38
13796;SHT30;40911;51.552;9.874;2024-02-04T06:41:46;8.86;98.13
13796;SHT30;40911;51.552;9.874;2024-02-04T06:44:10;8.86;98.10
13796;SHT30;40911;51.552;9.874;2024-02-04T06:46:32;8.83;98.21
13796;SHT30;40911;51.552;9.874;2024-02-04T06:48:54;8.89;98.03
13796;SHT30;40911;51.552;9.874;2024-02-04T06:51:16;9.04;97.16
13796;SHT30;40911;51.552;9.874;2024-02-04T06:53:37;8.99;97.11
13796;SHT30;40911;51.552;9.874;2024-02-04T06:55:59;8.93;97.38
13796;SHT30;40911;51.552;9.874;2024-02-04T06:58:21;9.03;96.73
13796;SHT30;40911;51.552;9.874;2024-02-04T07:00:46;9.00;96.97
13796;SHT30;40911;51.552;9.874;2024-02-04T07:03:07;9.00;97.02
13796;SHT30;40911;51.552;9.874;2024-02-04T07:05:30;9.06;96.99
13796;SHT30;40911;51.552;9.874;2024-02-04T07:07:54;9.00;97.28
13796;SHT30;40911;51.552;9.874;2024-02-04T07:10:15;8.97;97.43
13796;SHT30;40911;51.552;9.874;2024-02-04T07:12:37;9.06;97.26
13796;SHT30;40911;51.552;9.874;2024-02-04T07:14:59;9.03;97.38
13796;SHT30;40911;51.552;9.874;2024-02-04T07:17:22;9.04;97.41
13796;SHT30;40911;51.552;9.874;2024-02-04T07:19:45;9.06;97.53
13796;SHT30;40911;51.552;9.874;2024-02-04T07:22:06;9.04;97.44
13796;SHT30;40911;51.552;9.874;2024-02-04T07:24:28;9.07;97.39
13796;SHT30;40911;51.552;9.874;2024-02-04T07:26:50;9.07;97.49
13796;SHT30;40911;51.552;9.874;2024-02-04T07:29:12;9.10;97.50
13796;SHT30;40911;51.552;9.874;2024-02-04T07:31:34;9.09;97.24
13796;SHT30;40911;51.552;9.874;2024-02-04T07:33:59;9.09;97.48
13796;SHT30;40911;51.552;9.874;2024-02-04T07:36:20;9.11;97.14
13796;SHT30;40911;51.552;9.874;2024-02-04T07:38:42;9.14;97.00
13796;SHT30;40911;51.552;9.874;2024-02-04T07:41:04;9.14;96.96
13796;SHT30;40911;51.552;9.874;2024-02-04T07:43:26;9.16;96.92
13796;SHT30;40911;51.552;9.874;2024-02-04T07:45:48;9.16;96.97
13796;SHT30;40911;51.552;9.874;2024-02-04T07:48:09;9.13;97.19
13796;SHT30;40911;51.552;9.874;2024-02-04T07:50:33;9.11;96.83
13796;SHT30;40911;51.552;9.874;2024-02-04T07:52:55;9.14;96.79
13796;SHT30;40911;51.552;9.874;2024-02-04T07:55:16;9.13;96.54
13796;SHT30;40911;51.552;9.874;2024-02-04T07:57:38;9.13;96.40
13796;SHT30;40911;51.552;9.874;2024-02-04T08:00:00;9.14;95.94
13796;SHT30;40911;51.552;9.874;2024-02-04T08:02:23;9.20;94.73
13796;SHT30;40911;51.552;9.874;2024-02-04T08:04:45;9.17;95.00
13796;SHT30;40911;51.552;9.874;2024-02-04T08:07:08;9.20;94.89
13796;SHT30;40911;51.552;9.874;2024-02-04T08:09:30;9.16;94.96
13796;SHT30;40911;51.552;9.874;2024-02-04T08:11:52;9.19;94.56
13796;SHT30;40911;51.552;9.874;2024-02-04T08:14:13;9.24;94.17
13796;SHT30;40911;51.552;9.874;2024-02-04T08:16:35;9.21;94.51
13796;SHT30;40911;51.552;9.874;2024-02-04T08:18:57;9.19;94.69
13796;SHT30;40911;51.552;9.874;2024-02-04T08:21:19;9.16;95.01
13796;SHT30;40911;51.552;9.874;2024-02-04T08:23:42;9.24;94.63
13796;SHT30;40911;51.552;9.874;2024-02-04T08:26:04;9.24;95.04
13796;SHT30;40911;51.552;9.874;2024-02-04T08:28:26;9.27;94.90
13796;SHT30;40911;51.552;9.874;2024-02-04T08:30:48;9.26;94.92
13796;SHT30;40911;51.552;9.874;2024-02-04T08:33:09;9.27;95.06
13796;SHT30;40911;51.552;9.874;2024-02-04T08:35:31;9.35;94.38
13796;SHT30;40911;51.552;9.874;2024-02-04T08:37:52;9.34;94.44
13796;SHT30;40911;51.552;9.874;2024-02-04T08:40:15;9.32;94.42
13796;SHT30;40911;51.552;9.874;2024-02-04T08:42:37;9.34;94.24
13796;SHT30;40911;51.552;9.874;2024-02-04T08:44:59;9.32;94.38
13796;SHT30;40911;51.552;9.874;2024-02-04T08:47:20;9.27;94.81
13796;SHT30;40911;51.552;9.874;2024-02-04T08:49:42;9.20;95.29
13796;SHT30;40911;51.552;9.874;2024-02-04T08:52:04;9.24;95.05
13796;SHT30;40911;51.552;9.874;2024-02-04T08:54:25;9.24;94.89
13796;SHT30;40911;51.552;9.874;2024-02-04T08:56:48;9.20;95.06
13796;SHT30;40911;51.552;9.874;2024-02-04T08:59:10;9.19;95.13
13796;SHT30;40911;51.552;9.874;2024-02-04T09:01:32;9.16;95.58
13796;SHT30;40911;51.552;9.874;2024-02-04T09:03:53;9.11;96.14
13796;SHT30;40911;51.552;9.874;2024-02-04T09:06:15;9.10;96.32
13796;SHT30;40911;51.552;9.874;2024-02-04T09:08:37;9.09;96.80
13796;SHT30;40911;51.552;9.874;2024-02-04T09:10:58;9.03;97.10
13796;SHT30;40911;51.552;9.874;2024-02-04T09:13:21;9.07;97.26
13796;SHT30;40911;51.552;9.874;2024-02-04T09:15:43;9.16;96.66
13796;SHT30;40911;51.552;9.874;2024-02-04T09:18:04;9.14;96.77
13796;SHT30;40911;51.552;9.874;2024-02-04T09:20:26;9.16;97.01
13796;SHT30;40911;51.552;9.874;2024-02-04T09:22:48;9.10;97.29
13796;SHT30;40911;51.552;9.874;2024-02-04T09:25:09;9.07;97.62
13796;SHT30;40911;51.552;9.874;2024-02-04T09:27:31;9.07;97.68
13796;SHT30;40911;51.552;9.874;2024-02-04T09:29:54;9.19;97.00
13796;SHT30;40911;51.552;9.874;2024-02-04T09:32:15;9.19;97.25
13796;SHT30;40911;51.552;9.874;2024-02-04T09:34:37;9.23;96.74
13796;SHT30;40911;51.552;9.874;2024-02-04T09:36:59;9.24;97.01
13796;SHT30;40911;51.552;9.874;2024-02-04T09:39:21;9.23;96.99
13796;SHT30;40911;51.552;9.874;2024-02-04T09:41:43;9.23;97.00
13796;SHT30;40911;51.552;9.874;2024-02-04T09:44:05;9.28;96.95
13796;SHT30;40911;51.552;9.874;2024-02-04T09:46:29;9.28;96.78
13796;SHT30;40911;51.552;9.874;2024-02-04T09:48:51;9.26;96.88
13796;SHT30;40911;51.552;9.874;2024-02-04T09:51:14;9.26;96.98
13796;SHT30;40911;51.552;9.874;2024-02-04T09:53:36;9.28;96.98
13796;SHT30;40911;51.552;9.874;2024-02-04T09:55:58;9.32;96.74
13796;SHT30;40911;51.552;9.874;2024-02-04T09:58:20;9.35;96.59
13796;SHT30;40911;51.552;9.874;2024-02-04T10:00:43;9.37;96.62
13796;SHT30;40911;51.552;9.874;2024-02-04T10:03:07;9.34;96.63
13796;SHT30;40911;51.552;9.874;2024-02-04T10:05:29;9.38;96.32
13796;SHT30;40911;51.552;9.874;2024-02-04T10:07:51;9.41;95.97
13796;SHT30;40911;51.552;9.874;2024-02-04T10:10:13;9.38;96.43
13796;SHT30;40911;51.552;9.874;2024-02-04T10:12:35;9.26;95.94
13796;SHT30;40911;51.552;9.874;2024-02-04T10:14:59;9.27;95.88
13796;SHT30;40911;51.552;9.874;2024-02-04T10:17:20;9.23;96.15
13796;SHT30;40911;51.552;9.874;2024-02-04T10:19:44;9.19;96.39
13796;SHT30;40911;51.552;9.874;2024-02-04T10:22:05;9.17;95.68
13796;SHT30;40911;51.552;9.874;2024-02-04T10:24:27;9.07;95.00
13796;SHT30;40911;51.552;9.874;2024-02-04T10:26:48;9.03;95.31
13796;SHT30;40911;51.552;9.874;2024-02-04T10:29:10;8.99;95.52
13796;SHT30;40911;51.552;9.874;2024-02-04T10:31:33;8.93;95.08
13796;SHT30;40911;51.552;9.874;2024-02-04T10:33:55;8.85;95.71
13796;SHT30;40911;51.552;9.874;2024-02-04T10:36:18;8.77;96.15
13796;SHT30;40911;51.552;9.874;2024-02-04T10:38:40;8.76;96.45
13796;SHT30;40911;51.552;9.874;2024-02-04T10:41:01;8.77;96.00
13796;SHT30;40911;51.552;9.874;2024-02-04T10:43:24;8.80;96.32
13796;SHT30;40911;51.552;9.874;2024-02-04T10:45:52;8.83;96.15
13796;SHT30;40911;51.552;9.874;2024-02-04T10:48:19;8.83;96.20
13796;SHT30;40911;51.552;9.874;2024-02-04T10:50:42;8.85;96.29
13796;SHT30;40911;51.552;9.874;2024-02-04T10:53:10;8.88;96.04
13796;SHT30;40911;51.552;9.874;2024-02-04T10:55:37;8.92;96.42
13796;SHT30;40911;51.552;9.874;2024-02-04T10:58:02;8.93;96.01
13796;SHT30;40911;51.552;9.874;2024-02-04T11:00:24;8.99;96.19
13796;SHT30;40911;51.552;9.874;2024-02-04T11:02:47;8.97;95.89
13796;SHT30;40911;51.552;9.874;2024-02-04T11:05:10;8.99;96.02
13796;SHT30;40911;51.552;9.874;2024-02-04T11:07:32;9.03;95.44
13796;SHT30;40911;51.552;9.874;2024-02-04T11:09:57;9.09;95.40
13796;SHT30;40911;51.552;9.874;2024-02-04T11:12:20;9.04;95.55
13796;SHT30;40911;51.552;9.874;2024-02-04T11:14:45;9.09;95.59
13796;SHT30;40911;51.552;9.874;2024-02-04T11:17:38;9.11;95.16
13796;SHT30;40911;51.552;9.874;2024-02-04T11:20:19;9.17;94.88
13796;SHT30;40911;51.552;9.874;2024-02-04T11:23:24;9.26;94.61
13796;SHT30;40911;51.552;9.874;2024-02-04T11:25:52;9.24;95.03
13796;SHT30;40911;51.552;9.874;2024-02-04T11:28:16;9.21;95.00
13796;SHT30;40911;51.552;9.874;2024-02-04T11:30:39;9.24;94.56
13796;SHT30;40911;51.552;9.874;2024-02-04T11:33:00;9.26;94.49
13796;SHT30;40911;51.552;9.874;2024-02-04T11:35:22;9.31;94.37
13796;SHT30;40911;51.552;9.874;2024-02-04T11:37:45;9.31;94.50
13796;SHT30;40911;51.552;9.874;2024-02-04T11:40:13;9.32;94.13
13796;SHT30;40911;51.552;9.874;2024-02-04T11:42:37;9.38;93.31
13796;SHT30;40911;51.552;9.874;2024-02-04T11:45:08;9.38;93.62
13796;SHT30;40911;51.552;9.874;2024-02-04T11:47:29;9.37;93.73
13796;SHT30;40911;51.552;9.874;2024-02-04T11:49:55;9.42;93.74
13796;SHT30;40911;51.552;9.874;2024-02-04T11:52:18;9.40;94.10
13796;SHT30;40911;51.552;9.874;2024-02-04T11:54:40;9.42;94.38
13796;SHT30;40911;51.552;9.874;2024-02-04T11:57:03;9.35;95.05
13796;SHT30;40911;51.552;9.874;2024-02-04T11:59:25;9.35;95.24
13796;SHT30;40911;51.552;9.874;2024-02-04T12:01:47;9.35;95.52
13796;SHT30;40911;51.552;9.874;2024-02-04T12:04:10;9.34;95.63
13796;SHT30;40911;51.552;9.874;2024-02-04T12:06:32;9.35;95.71
13796;SHT30;40911;51.552;9.874;2024-02-04T12:08:53;9.34;95.15
13796;SHT30;40911;51.552;9.874;2024-02-04T12:11:15;9.34;94.88
13796;SHT30;40911;51.552;9.874;2024-02-04T12:13:37;9.31;95.13
13796;SHT30;40911;51.552;9.874;2024-02-04T12:16:00;9.35;95.06
13796;SHT30;40911;51.552;9.874;2024-02-04T12:18:22;9.24;94.85
13796;SHT30;40911;51.552;9.874;2024-02-04T12:20:44;9.28;95.11
13796;SHT30;40911;51.552;9.874;2024-02-04T12:23:07;9.21;95.31
13796;SHT30;40911;51.552;9.874;2024-02-04T12:25:29;9.23;95.17
13796;SHT30;40911;51.552;9.874;2024-02-04T12:27:51;9.28;95.20
13796;SHT30;40911;51.552;9.874;2024-02-04T12:30:13;9.31;94.77
13796;SHT30;40911;51.552;9.874;2024-02-04T12:32:35;9.30;94.27
13796;SHT30;40911;51.552;9.874;2024-02-04T12:34:57;9.28;94.05
13796;SHT30;40911;51.552;9.874;2024-02-04T12:37:18;9.32;93.84
13796;SHT30;40911;51.552;9.874;2024-02-04T12:39:40;9.28;94.19
13796;SHT30;40911;51.552;9.874;2024-02-04T12:42:01;9.26;94.31
13796;SHT30;40911;51.552;9.874;2024-02-04T12:44:23;9.19;94.63
13796;SHT30;40911;51.552;9.874;2024-02-04T12:46:45;9.07;94.94
13796;SHT30;40911;51.552;9.874;2024-02-04T12:49:08;9.04;95.75
13796;SHT30;40911;51.552;9.874;2024-02-04T12:51:30;8.97;96.26
13796;SHT30;40911;51.552;9.874;2024-02-04T12:54:06;8.86;96.72
13796;SHT30;40911;51.552;9.874;2024-02-04T12:56:39;8.80;96.91
13796;SHT30;40911;51.552;9.874;2024-02-04T12:59:01;8.79;97.05
13796;SHT30;40911;51.552;9.874;2024-02-04T13:01:24;8.83;97.30
13796;SHT30;40911;51.552;9.874;2024-02-04T13:03:46;8.77;97.52
13796;SHT30;40911;51.552;9.874;2024-02-04T13:06:11;8.77;97.47
13796;SHT30;40911;51.552;9.874;2024-02-04T13:08:34;8.80;97.43
13796;SHT30;40911;51.552;9.874;2024-02-04T13:10:56;8.89;97.26
13796;SHT30;40911;51.552;9.874;2024-02-04T13:13:18;8.96;97.26
13796;SHT30;40911;51.552;9.874;2024-02-04T13:15:42;8.96;97.35
13796;SHT30;40911;51.552;9.874;2024-02-04T13:18:04;8.99;97.27
13796;SHT30;40911;51.552;9.874;2024-02-04T13:20:26;8.99;97.33
13796;SHT30;40911;51.552;9.874;2024-02-04T13:22:49;8.96;97.36
13796;SHT30;40911;51.552;9.874;2024-02-04T13:25:11;9.04;97.36
13796;SHT30;40911;51.552;9.874;2024-02-04T13:27:32;8.99;97.46
13796;SHT30;40911;51.552;9.874;2024-02-04T13:29:54;9.02;97.60
13796;SHT30;40911;51.552;9.874;2024-02-04T13:32:15;9.03;97.65
13796;SHT30;40911;51.552;9.874;2024-02-04T13:34:37;9.07;97.69
13796;SHT30;40911;51.552;9.874;2024-02-04T13:36:58;9.10;97.63
13796;SHT30;40911;51.552;9.874;2024-02-04T13:39:22;9.17;97.64
13796;SHT30;40911;51.552;9.874;2024-02-04T13:41:44;9.28;97.59
13796;SHT30;40911;51.552;9.874;2024-02-04T13:44:05;9.35;97.38
13796;SHT30;40911;51.552;9.874;2024-02-04T13:46:27;9.42;97.46
13796;SHT30;40911;51.552;9.874;2024-02-04T13:48:49;9.49;97.02
13796;SHT30;40911;51.552;9.874;2024-02-04T13:51:10;9.58;96.63
13796;SHT30;40911;51.552;9.874;2024-02-04T13:53:32;9.62;96.12
13796;SHT30;40911;51.552;9.874;2024-02-04T13:55:56;9.73;95.82
13796;SHT30;40911;51.552;9.874;2024-02-04T13:58:17;9.76;95.38
13796;SHT30;40911;51.552;9.874;2024-02-04T14:00:39;9.82;95.05
13796;SHT30;40911;51.552;9.874;2024-02-04T14:03:01;9.82;95.18
13796;SHT30;40911;51.552;9.874;2024-02-04T14:05:22;9.79;95.13
13796;SHT30;40911;51.552;9.874;2024-02-04T14:07:45;9.78;94.53
13796;SHT30;40911;51.552;9.874;2024-02-04T14:10:07;9.73;94.85
13796;SHT30;40911;51.552;9.874;2024-02-04T14:12:33;9.69;95.26
13796;SHT30;40911;51.552;9.874;2024-02-04T14:14:54;9.62;95.51
13796;SHT30;40911;51.552;9.874;2024-02-04T14:17:16;9.59;95.74
13796;SHT30;40911;51.552;9.874;2024-02-04T14:19:38;9.58;96.03
13796;SHT30;40911;51.552;9.874;2024-02-04T14:21:59;9.52;96.21
13796;SHT30;40911;51.552;9.874;2024-02-04T14:24:21;9.52;96.31
13796;SHT30;40911;51.552;9.874;2024-02-04T14:26:43;9.52;96.61
13796;SHT30;40911;51.552;9.874;2024-02-04T14:29:06;9.52;96.66
13796;SHT30;40911;51.552;9.874;2024-02-04T14:31:27;9.48;96.55
13796;SHT30;40911;51.552;9.874;2024-02-04T14:33:49;9.45;96.75
13796;SHT30;40911;51.552;9.874;2024-02-04T14:36:11;9.48;96.82
13796;SHT30;40911;51.552;9.874;2024-02-04T14:38:32;9.47;97.16
13796;SHT30;40911;51.552;9.874;2024-02-04T14:40:54;9.48;97.05
13796;SHT30;40911;51.552;9.874;2024-02-04T14:43:15;9.47;96.98
13796;SHT30;40911;51.552;9.874;2024-02-04T14:45:39;9.48;97.05
13796;SHT30;40911;51.552;9.874;2024-02-04T14:48:02;9.47;97.26
13796;SHT30;40911;51.552;9.874;2024-02-04T14:50:23;9.41;97.65
13796;SHT30;40911;51.552;9.874;2024-02-04T14:52:45;9.41;97.70
13796;SHT30;40911;51.552;9.874;2024-02-04T14:55:07;9.40;97.83
13796;SHT30;40911;51.552;9.874;2024-02-04T14:57:30;9.40;97.68
13796;SHT30;40911;51.552;9.874;2024-02-04T14:59:51;9.40;97.88
13796;SHT30;40911;51.552;9.874;2024-02-04T15:02:14;9.38;97.85
13796;SHT30;40911;51.552;9.874;2024-02-04T15:04:36;9.40;97.89
13796;SHT30;40911;51.552;9.874;2024-02-04T15:06:57;9.37;97.94
13796;SHT30;40911;51.552;9.874;2024-02-04T15:09:19;9.38;97.97
13796;SHT30;40911;51.552;9.874;2024-02-04T15:11:41;9.44;97.84
13796;SHT30;40911;51.552;9.874;2024-02-04T15:14:03;9.41;97.90
13796;SHT30;40911;51.552;9.874;2024-02-04T15:16:25;9.38;98.02
13796;SHT30;40911;51.552;9.874;2024-02-04T15:18:49;9.41;97.96
13796;SHT30;40911;51.552;9.874;2024-02-04T15:21:11;9.41;98.04
13796;SHT30;40911;51.552;9.874;2024-02-04T15:23:33;9.41;98.05
13796;SHT30;40911;51.552;9.874;2024-02-04T15:25:56;9.41;97.78
13796;SHT30;40911;51.552;9.874;2024-02-04T15:28:18;9.44;97.71
13796;SHT30;40911;51.552;9.874;2024-02-04T15:30:40;9.41;97.89
13796;SHT30;40911;51.552;9.874;2024-02-04T15:33:02;9.41;97.68
13796;SHT30;40911;51.552;9.874;2024-02-04T15:35:26;9.40;97.85
13796;SHT30;40911;51.552;9.874;2024-02-04T15:37:48;9.40;97.91
13796;SHT30;40911;51.552;9.874;2024-02-04T15:40:10;9.42;97.55
13796;SHT30;40911;51.552;9.874;2024-02-04T15:42:32;9.37;97.97
13796;SHT30;40911;51.552;9.874;2024-02-04T15:44:53;9.35;98.18
13796;SHT30;40911;51.552;9.874;2024-02-04T15:47:15;9.32;98.28
13796;SHT30;40911;51.552;9.874;2024-02-04T15:49:38;9.30;98.59
13796;SHT30;40911;51.552;9.874;2024-02-04T15:52:02;9.28;98.67
13796;SHT30;40911;51.552;9.874;2024-02-04T15:54:24;9.30;98.76
13796;SHT30;40911;51.552;9.874;2024-02-04T15:56:54;9.34;98.69
13796;SHT30;40911;51.552;9.874;2024-02-04T15:59:18;9.30;98.54
13796;SHT30;40911;51.552;9.874;2024-02-04T16:01:43;9.27;98.75
13796;SHT30;40911;51.552;9.874;2024-02-04T16:04:06;9.27;98.83
13796;SHT30;40911;51.552;9.874;2024-02-04T16:06:28;9.27;98.80
13796;SHT30;40911;51.552;9.874;2024-02-04T16:08:52;9.28;98.75
13796;SHT30;40911;51.552;9.874;2024-02-04T16:11:15;9.28;98.62
13796;SHT30;40911;51.552;9.874;2024-02-04T16:13:38;9.28;98.57
13796;SHT30;40911;51.552;9.874;2024-02-04T16:16:02;9.30;98.40
13796;SHT30;40911;51.552;9.874;2024-02-04T16:18:24;9.31;98.39
13796;SHT30;40911;51.552;9.874;2024-02-04T16:20:46;9.31;98.49
13796;SHT30;40911;51.552;9.874;2024-02-04T16:23:07;9.30;98.51
13796;SHT30;40911;51.552;9.874;2024-02-04T16:25:30;9.27;98.57
13796;SHT30;40911;51.552;9.874;2024-02-04T16:27:53;9.34;98.38
13796;SHT30;40911;51.552;9.874;2024-02-04T16:30:15;9.32;98.36
13796;SHT30;40911;51.552;9.874;2024-02-04T16:32:37;9.37;98.18
13796;SHT30;40911;51.552;9.874;2024-02-04T16:34:59;9.41;98.24
13796;SHT30;40911;51.552;9.874;2024-02-04T16:37:21;9.42;98.08
13796;SHT30;40911;51.552;9.874;2024-02-04T16:39:41;9.40;98.21
13796;SHT30;40911;51.552;9.874;2024-02-04T16:42:06;9.41;98.32
13796;SHT30;40911;51.552;9.874;2024-02-04T16:44:29;9.38;98.39
13796;SHT30;40911;51.552;9.874;2024-02-04T16:46:50;9.34;98.62
13796;SHT30;40911;51.552;9.874;2024-02-04T16:49:12;9.35;98.73
13796;SHT30;40911;51.552;9.874;2024-02-04T16:51:37;9.37;98.71
13796;SHT30;40911;51.552;9.874;2024-02-04T16:53:59;9.34;98.78
13796;SHT30;40911;51.552;9.874;2024-02-04T16:56:20;9.32;98.90
13796;SHT30;40911;51.552;9.874;2024-02-04T16:58:45;9.37;98.91
13796;SHT30;40911;51.552;9.874;2024-02-04T17:01:06;9.35;98.90
13796;SHT30;40911;51.552;9.874;2024-02-04T17:03:28;9.38;99.10
13796;SHT30;40911;51.552;9.874;2024-02-04T17:05:50;9.32;99.12
13796;SHT30;40911;51.552;9.874;2024-02-04T17:08:12;9.41;98.98
13796;SHT30;40911;51.552;9.874;2024-02-04T17:10:35;9.48;98.59
13796;SHT30;40911;51.552;9.874;2024-02-04T17:12:57;9.52;98.13
13796;SHT30;40911;51.552;9.874;2024-02-04T17:15:21;9.54;97.55
13796;SHT30;40911;51.552;9.874;2024-02-04T17:17:46;9.66;96.47
13796;SHT30;40911;51.552;9.874;2024-02-04T17:20:10;9.79;95.90
13796;SHT30;40911;51.552;9.874;2024-02-04T17:22:34;9.72;96.24
13796;SHT30;40911;51.552;9.874;2024-02-04T17:24:58;9.81;95.48
13796;SHT30;40911;51.552;9.874;2024-02-04T17:27:24;9.73;96.02
13796;SHT30;40911;51.552;9.874;2024-02-04T17:29:47;9.79;95.30
13796;SHT30;40911;51.552;9.874;2024-02-04T17:32:13;9.79;95.20
13796;SHT30;40911;51.552;9.874;2024-02-04T17:34:35;9.79;95.06
13796;SHT30;40911;51.552;9.874;2024-02-04T17:36:57;9.78;94.86
13796;SHT30;40911;51.552;9.874;2024-02-04T17:39:19;9.78;95.05
13796;SHT30;40911;51.552;9.874;2024-02-04T17:41:41;9.73;95.33
13796;SHT30;40911;51.552;9.874;2024-02-04T17:44:03;9.68;95.62
13796;SHT30;40911;51.552;9.874;2024-02-04T17:46:24;9.61;96.27
13796;SHT30;40911;51.552;9.874;2024-02-04T17:48:47;9.63;95.88
13796;SHT30;40911;51.552;9.874;2024-02-04T17:51:09;9.63;95.78
13796;SHT30;40911;51.552;9.874;2024-02-04T17:53:30;9.62;95.90
13796;SHT30;40911;51.552;9.874;2024-02-04T17:55:52;9.61;95.91
13796;SHT30;40911;51.552;9.874;2024-02-04T17:58:14;9.63;95.79
13796;SHT30;40911;51.552;9.874;2024-02-04T18:00:36;9.61;95.89
13796;SHT30;40911;51.552;9.874;2024-02-04T18:02:58;9.61;96.01
13796;SHT30;40911;51.552;9.874;2024-02-04T18:05:21;9.63;95.67
13796;SHT30;40911;51.552;9.874;2024-02-04T18:07:43;9.62;95.79
13796;SHT30;40911;51.552;9.874;2024-02-04T18:10:06;9.59;96.24
13796;SHT30;40911;51.552;9.874;2024-02-04T18:12:27;9.58;96.29
13796;SHT30;40911;51.552;9.874;2024-02-04T18:14:53;9.54;96.75
13796;SHT30;40911;51.552;9.874;2024-02-04T18:17:17;9.49;97.07
13796;SHT30;40911;51.552;9.874;2024-02-04T18:19:39;9.49;97.37
13796;SHT30;40911;51.552;9.874;2024-02-04T18:22:04;9.45;97.55
13796;SHT30;40911;51.552;9.874;2024-02-04T18:24:26;9.47;97.50
13796;SHT30;40911;51.552;9.874;2024-02-04T18:26:47;9.47;97.63
13796;SHT30;40911;51.552;9.874;2024-02-04T18:29:09;9.45;97.70
13796;SHT30;40911;51.552;9.874;2024-02-04T18:31:31;9.42;97.88
13796;SHT30;40911;51.552;9.874;2024-02-04T18:33:53;9.47;97.84
13796;SHT30;40911;51.552;9.874;2024-02-04T18:36:15;9.44;97.95
13796;SHT30;40911;51.552;9.874;2024-02-04T18:38:38;9.41;97.95
13796;SHT30;40911;51.552;9.874;2024-02-04T18:41:02;9.49;97.81
13796;SHT30;40911;51.552;9.874;2024-02-04T18:43:24;9.49;97.79
13796;SHT30;40911;51.552;9.874;2024-02-04T18:45:45;9.62;97.48
13796;SHT30;40911;51.552;9.874;2024-02-04T18:48:10;9.57;97.51
13796;SHT30;40911;51.552;9.874;2024-02-04T18:50:31;9.58;97.77
13796;SHT30;40911;51.552;9.874;2024-02-04T18:52:53;9.59;97.89
13796;SHT30;40911;51.552;9.874;2024-02-04T18:55:16;9.57;97.92
13796;SHT30;40911;51.552;9.874;2024-02-04T18:57:37;9.61;97.90
13796;SHT30;40911;51.552;9.874;2024-02-04T19:00:01;9.61;97.83
13796;SHT30;40911;51.552;9.874;2024-02-04T19:02:23;9.57;98.10
13796;SHT30;40911;51.552;9.874;2024-02-04T19:04:44;9.55;98.20
13796;SHT30;40911;51.552;9.874;2024-02-04T19:07:06;9.52;98.55
13796;SHT30;40911;51.552;9.874;2024-02-04T19:09:28;9.62;98.16
13796;SHT30;40911;51.552;9.874;2024-02-04T19:11:50;9.59;98.17
13796;SHT30;40911;51.552;9.874;2024-02-04T19:14:12;9.68;97.88
13796;SHT30;40911;51.552;9.874;2024-02-04T19:16:34;9.68;98.12
13796;SHT30;40911;51.552;9.874;2024-02-04T19:18:55;9.76;97.65
13796;SHT30;40911;51.552;9.874;2024-02-04T19:21:17;9.68;98.17
13796;SHT30;40911;51.552;9.874;2024-02-04T19:23:38;9.68;97.99
13796;SHT30;40911;51.552;9.874;2024-02-04T19:26:00;9.70;97.97
13796;SHT30;40911;51.552;9.874;2024-02-04T19:28:23;9.81;97.57
13796;SHT30;40911;51.552;9.874;2024-02-04T19:30:44;9.72;97.77
13796;SHT30;40911;51.552;9.874;2024-02-04T19:33:06;9.83;97.32
13796;SHT30;40911;51.552;9.874;2024-02-04T19:35:27;9.81;97.53
13796;SHT30;40911;51.552;9.874;2024-02-04T19:37:50;9.93;97.27
13796;SHT30;40911;51.552;9.874;2024-02-04T19:40:13;9.88;97.35
13796;SHT30;40911;51.552;9.874;2024-02-04T19:42:35;9.97;97.02
13796;SHT30;40911;51.552;9.874;2024-02-04T19:44:58;9.89;97.28
13796;SHT30;40911;51.552;9.874;2024-02-04T19:47:19;9.95;97.21
13796;SHT30;40911;51.552;9.874;2024-02-04T19:49:41;9.90;97.29
13796;SHT30;40911;51.552;9.874;2024-02-04T19:52:03;9.89;97.47
13796;SHT30;40911;51.552;9.874;2024-02-04T19:54:25;9.86;97.59
13796;SHT30;40911;51.552;9.874;2024-02-04T19:56:46;9.88;97.52
13796;SHT30;40911;51.552;9.874;2024-02-04T19:59:08;9.93;97.22
13796;SHT30;40911;51.552;9.874;2024-02-04T20:01:32;9.97;97.20
13796;SHT30;40911;51.552;9.874;2024-02-04T20:03:54;9.99;97.06
13796;SHT30;40911;51.552;9.874;2024-02-04T20:06:15;9.95;97.17
13796;SHT30;40911;51.552;9.874;2024-02-04T20:08:38;10.03;96.91
13796;SHT30;40911;51.552;9.874;2024-02-04T20:10:59;9.96;97.24
13796;SHT30;40911;51.552;9.874;2024-02-04T20:13:21;9.92;97.71
13796;SHT30;40911;51.552;9.874;2024-02-04T20:15:42;9.89;97.70
13796;SHT30;40911;51.552;9.874;2024-02-04T20:18:06;9.92;97.59
13796;SHT30;40911;51.552;9.874;2024-02-04T20:20:28;9.86;97.85
13796;SHT30;40911;51.552;9.874;2024-02-04T20:22:50;9.92;97.65
13796;SHT30;40911;51.552;9.874;2024-02-04T20:25:14;9.93;97.52
13796;SHT30;40911;51.552;9.874;2024-02-04T20:27:36;9.93;97.41
13796;SHT30;40911;51.552;9.874;2024-02-04T20:29:57;9.92;97.59
13796;SHT30;40911;51.552;9.874;2024-02-04T20:32:19;9.89;97.45
13796;SHT30;40911;51.552;9.874;2024-02-04T20:34:42;9.95;97.35